createdAt,value
2019-03-27T00:00:41.586Z,5.7
2019-03-27T00:01:48.782Z,5.7
2019-03-27T00:02:55.985Z,5.7
2019-03-27T00:04:03.193Z,5.7
2019-03-27T00:05:10.505Z,5.7
2019-03-27T00:06:17.704Z,5.7
2019-03-27T00:07:24.901Z,5.7
2019-03-27T00:08:31.829Z,5.7
2019-03-27T00:09:38.757Z,5.7
2019-03-27T00:10:45.955Z,5.7
2019-03-27T00:11:53.148Z,5.7
2019-03-27T00:13:00.344Z,5.7
2019-03-27T00:14:07.543Z,5.7
2019-03-27T00:15:14.741Z,5.7
2019-03-27T00:16:21.939Z,5.7
2019-03-27T00:17:29.151Z,5.7
2019-03-27T00:18:36.352Z,5.7
2019-03-27T00:19:43.283Z,5.6
2019-03-27T00:20:50.561Z,5.7
2019-03-27T00:21:57.746Z,5.6
2019-03-27T00:23:04.946Z,5.7
2019-03-27T00:24:12.151Z,5.7
2019-03-27T00:25:19.350Z,5.7
2019-03-27T00:26:26.294Z,5.7
2019-03-27T00:27:33.498Z,5.7
2019-03-27T00:28:40.702Z,5.7
2019-03-27T00:29:47.898Z,5.7
2019-03-27T00:30:54.826Z,5.7
2019-03-27T00:32:02.030Z,5.7
2019-03-27T00:33:09.231Z,5.7
2019-03-27T00:34:16.466Z,5.7
2019-03-27T00:35:23.670Z,5.7
2019-03-27T00:36:30.874Z,5.6
2019-03-27T00:37:37.800Z,5.6
2019-03-27T00:38:45.000Z,5.6
2019-03-27T00:39:52.200Z,5.6
2019-03-27T00:40:59.607Z,5.6
2019-03-27T00:42:06.808Z,5.6
2019-03-27T00:43:13.735Z,5.6
2019-03-27T00:44:20.936Z,5.6
2019-03-27T00:45:28.136Z,5.6
2019-03-27T00:46:35.344Z,5.6
2019-03-27T00:47:42.549Z,5.6
2019-03-27T00:48:49.754Z,5.6
2019-03-27T00:49:56.948Z,5.6
2019-03-27T00:51:03.873Z,5.6
2019-03-27T00:52:11.077Z,5.6
2019-03-27T00:53:17.999Z,5.6
2019-03-27T00:54:24.933Z,5.5
2019-03-27T00:55:32.173Z,5.5
2019-03-27T00:56:39.375Z,5.5
2019-03-27T00:57:46.569Z,5.6
2019-03-27T00:58:53.764Z,5.5
2019-03-27T01:00:00.972Z,5.5
2019-03-27T01:01:07.899Z,5.5
2019-03-27T01:02:14.831Z,5.5
2019-03-27T01:03:22.030Z,5.5
2019-03-27T01:04:29.229Z,5.5
2019-03-27T01:05:36.431Z,5.5
2019-03-27T01:06:43.663Z,5.5
2019-03-27T01:07:50.855Z,5.5
2019-03-27T01:08:58.054Z,5.5
2019-03-27T01:10:05.257Z,5.5
2019-03-27T01:11:12.395Z,5.5
2019-03-27T01:12:19.596Z,5.5
2019-03-27T01:13:26.793Z,5.5
2019-03-27T01:14:33.721Z,5.5
2019-03-27T01:15:40.921Z,5.5
2019-03-27T01:16:48.124Z,5.5
2019-03-27T01:17:55.053Z,5.4
2019-03-27T01:19:02.255Z,5.4
2019-03-27T01:20:09.455Z,5.4
2019-03-27T01:21:16.383Z,5.4
2019-03-27T01:22:23.589Z,5.4
2019-03-27T01:23:30.785Z,5.4
2019-03-27T01:24:37.704Z,5.3
2019-03-27T01:25:44.902Z,5.3
2019-03-27T01:26:52.112Z,5.3
2019-03-27T01:27:58.819Z,5.3
2019-03-27T01:29:06.021Z,5.3
2019-03-27T01:30:13.233Z,5.2
2019-03-27T01:31:20.434Z,5.3
2019-03-27T01:32:27.091Z,5.2
2019-03-27T01:33:34.297Z,5.2
2019-03-27T01:34:41.496Z,5.2
2019-03-27T01:35:48.694Z,5.2
2019-03-27T01:36:55.895Z,5.2
2019-03-27T01:38:03.100Z,5.2
2019-03-27T01:39:10.289Z,5.2
2019-03-27T01:40:17.491Z,5.2
2019-03-27T01:41:24.688Z,5.2
2019-03-27T01:42:31.892Z,5.1
2019-03-27T01:43:39.091Z,5.1
2019-03-27T01:44:46.291Z,5.1
2019-03-27T01:45:54.023Z,5.1
2019-03-27T01:47:01.219Z,5.1
2019-03-27T01:48:08.151Z,5.1
2019-03-27T01:49:15.354Z,5.1
2019-03-27T01:50:22.279Z,5.1
2019-03-27T01:51:29.203Z,5.1
2019-03-27T01:52:36.399Z,5
2019-03-27T01:53:43.389Z,5
2019-03-27T01:54:50.311Z,5
2019-03-27T01:55:57.238Z,5
2019-03-27T01:57:04.437Z,5
2019-03-27T01:58:11.365Z,5
2019-03-27T01:59:18.291Z,5
2019-03-27T02:00:25.214Z,5
2019-03-27T02:01:32.415Z,5
2019-03-27T02:02:39.612Z,5
2019-03-27T02:03:46.590Z,5
2019-03-27T02:04:53.795Z,5
2019-03-27T02:06:00.727Z,5
2019-03-27T02:07:07.921Z,5
2019-03-27T02:08:15.123Z,5
2019-03-27T02:09:22.347Z,4.9
2019-03-27T02:10:29.272Z,4.9
2019-03-27T02:11:36.224Z,4.9
2019-03-27T02:12:43.411Z,4.9
2019-03-27T02:13:50.333Z,4.9
2019-03-27T02:14:57.533Z,4.9
2019-03-27T02:16:07.899Z,4.9
2019-03-27T02:17:15.097Z,4.9
2019-03-27T02:18:22.294Z,4.9
2019-03-27T02:19:29.223Z,4.9
2019-03-27T02:20:36.419Z,4.8
2019-03-27T02:21:43.621Z,4.8
2019-03-27T02:22:50.826Z,4.8
2019-03-27T02:23:58.021Z,4.8
2019-03-27T02:25:05.225Z,4.8
2019-03-27T02:26:12.160Z,4.8
2019-03-27T02:27:19.363Z,4.8
2019-03-27T02:28:26.562Z,4.8
2019-03-27T02:29:33.521Z,4.8
2019-03-27T02:30:40.733Z,4.8
2019-03-27T02:31:48.048Z,4.8
2019-03-27T02:32:55.254Z,4.8
2019-03-27T02:34:02.453Z,4.8
2019-03-27T02:35:09.662Z,4.8
2019-03-27T02:36:16.870Z,4.8
2019-03-27T02:37:24.067Z,4.7
2019-03-27T02:38:31.274Z,4.7
2019-03-27T02:39:38.200Z,4.7
2019-03-27T02:40:45.430Z,4.7
2019-03-27T02:41:52.364Z,4.7
2019-03-27T02:42:59.678Z,4.7
2019-03-27T02:44:06.880Z,4.7
2019-03-27T02:45:14.083Z,4.7
2019-03-27T02:46:25.778Z,4.7
2019-03-27T02:47:32.736Z,4.7
2019-03-27T02:48:39.937Z,4.6
2019-03-27T02:49:46.861Z,4.6
2019-03-27T02:50:54.058Z,4.6
2019-03-27T02:52:01.260Z,4.6
2019-03-27T02:53:08.464Z,4.6
2019-03-27T02:54:15.385Z,4.6
2019-03-27T02:55:22.654Z,4.6
2019-03-27T02:56:29.849Z,4.6
2019-03-27T02:57:36.770Z,4.6
2019-03-27T02:58:43.961Z,4.6
2019-03-27T02:59:50.893Z,4.6
2019-03-27T03:00:58.229Z,4.6
2019-03-27T03:02:05.440Z,4.6
2019-03-27T03:03:12.642Z,4.6
2019-03-27T03:04:19.839Z,4.6
2019-03-27T03:05:27.037Z,4.6
2019-03-27T03:06:34.236Z,4.6
2019-03-27T03:07:41.163Z,4.5
2019-03-27T03:08:48.417Z,4.5
2019-03-27T03:09:55.611Z,4.5
2019-03-27T03:11:02.944Z,4.5
2019-03-27T03:12:10.145Z,4.5
2019-03-27T03:13:17.348Z,4.5
2019-03-27T03:14:24.291Z,4.4
2019-03-27T03:15:31.490Z,4.4
2019-03-27T03:16:43.529Z,4.4
2019-03-27T03:17:50.775Z,4.3
2019-03-27T03:18:57.973Z,4.3
2019-03-27T03:20:04.623Z,4.3
2019-03-27T03:21:11.827Z,4.3
2019-03-27T03:22:19.019Z,4.2
2019-03-27T03:23:25.953Z,4.2
2019-03-27T03:24:33.149Z,4.2
2019-03-27T03:25:40.075Z,4.1
2019-03-27T03:26:51.729Z,4.1
2019-03-27T03:27:58.961Z,4.1
2019-03-27T03:29:06.160Z,4
2019-03-27T03:30:13.387Z,4
2019-03-27T03:31:20.880Z,4
2019-03-27T03:32:28.118Z,4
2019-03-27T03:33:35.335Z,3.9
2019-03-27T03:34:42.443Z,3.9
2019-03-27T03:35:49.640Z,3.9
2019-03-27T03:36:56.837Z,3.9
2019-03-27T03:38:04.037Z,3.9
2019-03-27T03:39:11.234Z,3.8
2019-03-27T03:40:18.498Z,3.8
2019-03-27T03:41:25.729Z,3.8
2019-03-27T03:42:32.919Z,3.7
2019-03-27T03:43:40.142Z,3.7
2019-03-27T03:44:47.329Z,3.6
2019-03-27T03:45:54.249Z,3.6
2019-03-27T03:47:01.482Z,3.6
2019-03-27T03:48:08.407Z,3.5
2019-03-27T03:49:15.611Z,3.4
2019-03-27T03:50:22.809Z,3.4
2019-03-27T03:51:30.010Z,3.3
2019-03-27T03:52:37.209Z,3.3
2019-03-27T03:53:44.411Z,3.3
2019-03-27T03:54:51.610Z,3.3
2019-03-27T03:55:58.806Z,3.3
2019-03-27T03:57:06.098Z,3.2
2019-03-27T03:58:13.299Z,3.2
2019-03-27T03:59:20.585Z,3.2
2019-03-27T04:00:27.789Z,3.2
2019-03-27T04:01:34.443Z,3.1
2019-03-27T04:02:41.597Z,3.1
2019-03-27T04:03:48.795Z,3
2019-03-27T04:04:55.722Z,3
2019-03-27T04:06:02.920Z,2.9
2019-03-27T04:07:10.189Z,2.9
2019-03-27T04:08:17.111Z,2.9
2019-03-27T04:09:24.318Z,2.8
2019-03-27T04:10:31.513Z,2.7
2019-03-27T04:11:38.711Z,2.7
2019-03-27T04:12:45.911Z,2.6
2019-03-27T04:13:53.115Z,2.6
2019-03-27T04:15:00.475Z,2.6
2019-03-27T04:16:07.406Z,2.6
2019-03-27T04:17:18.267Z,2.5
2019-03-27T04:18:25.463Z,2.5
2019-03-27T04:19:32.662Z,2.4
2019-03-27T04:20:39.864Z,2.4
2019-03-27T04:21:46.787Z,2.4
2019-03-27T04:22:54.001Z,2.3
2019-03-27T04:24:01.205Z,2.3
2019-03-27T04:25:08.401Z,2.3
2019-03-27T04:26:15.596Z,2.2
2019-03-27T04:27:22.798Z,2.3
2019-03-27T04:28:29.997Z,2.2
2019-03-27T04:29:37.192Z,2.1
2019-03-27T04:30:44.398Z,2.1
2019-03-27T04:31:51.318Z,2.1
2019-03-27T04:32:58.538Z,2
2019-03-27T04:34:05.738Z,2
2019-03-27T04:35:12.947Z,1.9
2019-03-27T04:36:20.136Z,1.9
2019-03-27T04:37:27.337Z,1.9
2019-03-27T04:38:34.263Z,1.8
2019-03-27T04:39:41.183Z,1.8
2019-03-27T04:40:48.379Z,1.8
2019-03-27T04:41:55.302Z,1.8
2019-03-27T04:43:02.497Z,1.7
2019-03-27T04:44:09.695Z,1.7
2019-03-27T04:45:16.627Z,1.6
2019-03-27T04:46:23.838Z,1.6
2019-03-27T04:47:33.053Z,1.6
2019-03-27T04:48:40.249Z,1.5
2019-03-27T04:49:47.170Z,1.4
2019-03-27T04:50:54.454Z,1.4
2019-03-27T04:52:01.660Z,1.5
2019-03-27T04:53:08.584Z,1.5
2019-03-27T04:54:15.780Z,1.4
2019-03-27T04:55:22.977Z,1.4
2019-03-27T04:56:29.904Z,1.4
2019-03-27T04:57:36.834Z,1.3
2019-03-27T04:58:44.109Z,1.3
2019-03-27T04:59:51.021Z,1.3
2019-03-27T05:00:57.948Z,1.2
2019-03-27T05:02:07.165Z,1.2
2019-03-27T05:03:14.375Z,1.2
2019-03-27T05:04:21.566Z,1.2
2019-03-27T05:05:28.763Z,1.1
2019-03-27T05:06:35.953Z,1.1
2019-03-27T05:07:43.151Z,1
2019-03-27T05:08:50.345Z,1
2019-03-27T05:09:57.543Z,1
2019-03-27T05:11:04.741Z,0.9
2019-03-27T05:12:11.937Z,0.9
2019-03-27T05:13:19.139Z,0.9
2019-03-27T05:14:26.333Z,0.9
2019-03-27T05:15:33.265Z,0.8
2019-03-27T05:16:40.458Z,0.8
2019-03-27T05:17:47.647Z,0.8
2019-03-27T05:18:54.855Z,0.8
2019-03-27T05:20:02.048Z,0.9
2019-03-27T05:21:09.251Z,0.8
2019-03-27T05:22:16.452Z,0.9
2019-03-27T05:23:23.699Z,0.9
2019-03-27T05:24:30.916Z,0.9
2019-03-27T05:25:38.114Z,0.8
2019-03-27T05:26:45.039Z,0.8
2019-03-27T05:27:52.230Z,0.8
2019-03-27T05:28:59.428Z,0.8
2019-03-27T05:30:06.626Z,0.8
2019-03-27T05:31:13.546Z,0.8
2019-03-27T05:32:20.471Z,0.7
2019-03-27T05:33:27.665Z,0.7
2019-03-27T05:34:34.593Z,0.7
2019-03-27T05:35:41.796Z,0.7
2019-03-27T05:36:48.992Z,0.8
2019-03-27T05:37:56.189Z,0.8
2019-03-27T05:39:03.394Z,0.7
2019-03-27T05:40:10.578Z,0.7
2019-03-27T05:41:17.507Z,0.7
2019-03-27T05:42:24.723Z,0.7
2019-03-27T05:43:31.930Z,0.7
2019-03-27T05:44:39.124Z,0.7
2019-03-27T05:45:46.324Z,0.8
2019-03-27T05:46:53.242Z,0.7
2019-03-27T05:48:00.718Z,0.7
2019-03-27T05:49:07.915Z,0.8
2019-03-27T05:50:14.847Z,0.8
2019-03-27T05:51:21.782Z,0.8
2019-03-27T05:52:28.716Z,0.8
2019-03-27T05:53:35.913Z,0.9
2019-03-27T05:54:42.841Z,0.9
2019-03-27T05:55:49.499Z,0.9
2019-03-27T05:56:56.691Z,0.9
2019-03-27T05:58:03.887Z,0.9
2019-03-27T05:59:11.083Z,0.9
2019-03-27T06:00:18.009Z,1
2019-03-27T06:01:25.207Z,1.1
2019-03-27T06:02:32.126Z,1.1
2019-03-27T06:03:39.322Z,1.1
2019-03-27T06:04:46.520Z,1.2
2019-03-27T06:05:53.728Z,1.2
2019-03-27T06:07:00.384Z,1.3
2019-03-27T06:08:07.039Z,1.3
2019-03-27T06:09:13.769Z,1.3
2019-03-27T06:10:20.965Z,1.4
2019-03-27T06:11:27.884Z,1.4
2019-03-27T06:12:35.099Z,1.5
2019-03-27T06:13:42.366Z,1.6
2019-03-27T06:14:49.567Z,1.7
2019-03-27T06:15:56.769Z,1.8
2019-03-27T06:17:03.971Z,1.9
2019-03-27T06:18:13.971Z,2
2019-03-27T06:19:20.937Z,2.1
2019-03-27T06:20:28.141Z,2.2
2019-03-27T06:21:35.342Z,2.3
2019-03-27T06:22:42.537Z,2.3
2019-03-27T06:23:49.465Z,2.4
2019-03-27T06:24:56.661Z,2.5
2019-03-27T06:26:03.860Z,2.5
2019-03-27T06:27:11.060Z,2.6
2019-03-27T06:28:17.728Z,2.7
2019-03-27T06:29:24.938Z,2.8
2019-03-27T06:30:32.140Z,2.9
2019-03-27T06:31:39.340Z,3
2019-03-27T06:32:46.532Z,3.1
2019-03-27T06:33:53.478Z,3.2
2019-03-27T06:35:00.424Z,3.3
2019-03-27T06:36:07.630Z,3.4
2019-03-27T06:37:14.846Z,3.4
2019-03-27T06:38:21.774Z,3.4
2019-03-27T06:39:29.034Z,3.4
2019-03-27T06:40:35.957Z,3.4
2019-03-27T06:41:46.435Z,3.4
2019-03-27T06:42:53.640Z,3.5
2019-03-27T06:44:00.882Z,3.5
2019-03-27T06:45:08.115Z,3.6
2019-03-27T06:46:15.039Z,3.7
2019-03-27T06:47:22.242Z,3.8
2019-03-27T06:48:29.170Z,3.9
2019-03-27T06:49:36.373Z,4
2019-03-27T06:50:43.577Z,4.1
2019-03-27T06:51:50.771Z,4.2
2019-03-27T06:52:57.974Z,4.3
2019-03-27T06:54:04.633Z,4.5
2019-03-27T06:55:11.836Z,4.6
2019-03-27T06:56:18.488Z,4.8
2019-03-27T06:57:25.697Z,4.9
2019-03-27T06:58:32.897Z,5.1
2019-03-27T06:59:40.093Z,5.3
2019-03-27T07:00:47.301Z,5.5
2019-03-27T07:01:54.504Z,5.6
2019-03-27T07:03:01.704Z,5.7
2019-03-27T07:04:11.428Z,5.9
2019-03-27T07:05:18.631Z,6.1
2019-03-27T07:06:25.838Z,6.2
2019-03-27T07:07:32.763Z,6.3
2019-03-27T07:08:39.964Z,6.6
2019-03-27T07:09:47.211Z,6.8
2019-03-27T07:10:54.134Z,6.9
2019-03-27T07:12:01.076Z,6.9
2019-03-27T07:13:07.782Z,6.8
2019-03-27T07:14:15.002Z,6.7
2019-03-27T07:15:22.201Z,6.7
2019-03-27T07:16:29.404Z,6.6
2019-03-27T07:17:36.327Z,6.6
2019-03-27T07:18:43.535Z,6.6
2019-03-27T07:19:50.467Z,6.6
2019-03-27T07:20:57.153Z,6.6
2019-03-27T07:22:04.072Z,6.6
2019-03-27T07:23:11.279Z,6.7
2019-03-27T07:24:18.475Z,6.8
2019-03-27T07:25:25.681Z,6.8
2019-03-27T07:26:32.887Z,6.9
2019-03-27T07:27:40.085Z,7
2019-03-27T07:28:47.343Z,7
2019-03-27T07:29:54.543Z,7
2019-03-27T07:31:01.739Z,7
2019-03-27T07:32:08.941Z,7
2019-03-27T07:33:16.140Z,7
2019-03-27T07:34:23.345Z,7
2019-03-27T07:35:30.544Z,7
2019-03-27T07:36:37.743Z,7.1
2019-03-27T07:37:44.942Z,7
2019-03-27T07:38:52.147Z,7.1
2019-03-27T07:39:59.409Z,7.1
2019-03-27T07:41:06.421Z,7.1
2019-03-27T07:42:13.356Z,7.2
2019-03-27T07:43:35.211Z,7.4
2019-03-27T07:44:42.411Z,7.5
2019-03-27T07:45:49.609Z,7.6
2019-03-27T07:46:56.538Z,7.6
2019-03-27T07:48:03.469Z,7.7
2019-03-27T07:49:10.661Z,7.6
2019-03-27T07:50:17.862Z,7.5
2019-03-27T07:51:25.061Z,7.6
2019-03-27T07:52:32.264Z,7.9
2019-03-27T07:53:53.842Z,8.2
2019-03-27T07:55:01.047Z,8.3
2019-03-27T07:56:07.975Z,8.5
2019-03-27T07:57:15.173Z,8.7
2019-03-27T07:58:22.099Z,8.8
2019-03-27T07:59:29.298Z,8.9
2019-03-27T08:00:36.241Z,8.7
2019-03-27T08:01:43.441Z,8.7
2019-03-27T08:02:50.381Z,8.7
2019-03-27T08:03:57.309Z,8.5
2019-03-27T08:05:04.511Z,8.4
2019-03-27T08:06:11.712Z,8.2
2019-03-27T08:07:27.403Z,8
2019-03-27T08:08:34.615Z,8.2
2019-03-27T08:09:41.544Z,8.6
2019-03-27T08:10:48.746Z,8.9
2019-03-27T08:11:56.022Z,9.2
2019-03-27T08:13:03.208Z,9.5
2019-03-27T08:14:10.465Z,9.7
2019-03-27T08:15:17.665Z,9.7
2019-03-27T08:16:24.878Z,9.7
2019-03-27T08:17:32.088Z,9.8
2019-03-27T08:18:39.291Z,10
2019-03-27T08:19:46.494Z,10.1
2019-03-27T08:20:53.700Z,10
2019-03-27T08:22:00.903Z,10
2019-03-27T08:23:08.105Z,10
2019-03-27T08:24:15.040Z,9.8
2019-03-27T08:25:22.245Z,10
2019-03-27T08:26:29.448Z,10.2
2019-03-27T08:27:36.649Z,10.3
2019-03-27T08:28:43.853Z,10.3
2019-03-27T08:29:51.062Z,10.2
2019-03-27T08:30:58.269Z,10
2019-03-27T08:32:05.468Z,9.7
2019-03-27T08:33:12.675Z,9.6
2019-03-27T08:34:19.599Z,9.7
2019-03-27T08:35:26.806Z,9.9
2019-03-27T08:36:34.014Z,10.2
2019-03-27T08:37:40.684Z,10.5
2019-03-27T08:38:47.885Z,10.6
2019-03-27T08:39:55.109Z,11
2019-03-27T08:41:02.307Z,11.3
2019-03-27T08:42:09.552Z,11.3
2019-03-27T08:43:25.436Z,11.3
2019-03-27T08:44:32.802Z,11
2019-03-27T08:45:40.008Z,11
2019-03-27T08:46:47.243Z,11.2
2019-03-27T08:47:54.431Z,11.4
2019-03-27T08:49:01.652Z,11.4
2019-03-27T08:50:08.859Z,11.5
2019-03-27T08:51:15.791Z,11.1
2019-03-27T08:52:22.998Z,11.2
2019-03-27T08:53:30.211Z,11.5
2019-03-27T08:54:37.419Z,11.5
2019-03-27T08:55:44.627Z,11.5
2019-03-27T08:56:51.852Z,11.5
2019-03-27T08:57:59.047Z,11.5
2019-03-27T08:59:06.250Z,11.5
2019-03-27T09:00:13.452Z,11.6
2019-03-27T09:01:20.656Z,11.7
2019-03-27T09:02:27.592Z,11.7
2019-03-27T09:03:34.803Z,11.8
2019-03-27T09:04:42.012Z,11.8
2019-03-27T09:05:49.231Z,11.7
2019-03-27T09:06:56.433Z,11.4
2019-03-27T09:08:03.638Z,10.6
2019-03-27T09:09:10.847Z,10.4
2019-03-27T09:10:17.785Z,10.2
2019-03-27T09:11:24.722Z,10.5
2019-03-27T09:12:31.644Z,10.2
2019-03-27T09:13:38.853Z,9.6
2019-03-27T09:14:46.065Z,9.7
2019-03-27T09:15:53.274Z,10
2019-03-27T09:17:00.464Z,10.5
2019-03-27T09:18:07.670Z,10.9
2019-03-27T09:19:14.883Z,11.4
2019-03-27T09:20:22.087Z,11.7
2019-03-27T09:21:29.302Z,11.9
2019-03-27T09:22:36.511Z,12.1
2019-03-27T09:23:46.413Z,11.8
2019-03-27T09:24:53.618Z,11.6
2019-03-27T09:26:00.824Z,11.6
2019-03-27T09:27:08.025Z,11.8
2019-03-27T09:28:15.228Z,12
2019-03-27T09:29:22.447Z,12.2
2019-03-27T09:30:29.655Z,12.3
2019-03-27T09:31:45.554Z,12.4
2019-03-27T09:32:52.763Z,12.2
2019-03-27T09:33:59.970Z,12.2
2019-03-27T09:35:06.914Z,12.4
2019-03-27T09:36:14.123Z,12.4
2019-03-27T09:37:21.332Z,12.3
2019-03-27T09:38:28.577Z,12
2019-03-27T09:39:35.516Z,11.8
2019-03-27T09:40:42.721Z,11.1
2019-03-27T09:41:49.933Z,10.8
2019-03-27T09:42:57.148Z,10.8
2019-03-27T09:44:04.350Z,11
2019-03-27T09:45:11.563Z,11.2
2019-03-27T09:46:18.790Z,11.2
2019-03-27T09:47:25.998Z,11.1
2019-03-27T09:48:33.202Z,11.4
2019-03-27T09:49:50.293Z,11.6
2019-03-27T09:50:57.219Z,11.2
2019-03-27T09:52:04.420Z,10.8
2019-03-27T09:53:11.631Z,10.9
2019-03-27T09:54:18.840Z,11
2019-03-27T09:55:26.044Z,11.4
2019-03-27T09:56:33.250Z,11.8
2019-03-27T09:57:40.458Z,12.1
2019-03-27T09:58:47.659Z,12.3
2019-03-27T09:59:54.867Z,11.9
2019-03-27T10:01:02.113Z,11.2
2019-03-27T10:02:09.428Z,11.1
2019-03-27T10:03:16.631Z,11.3
2019-03-27T10:04:23.835Z,11.4
2019-03-27T10:05:31.057Z,11.6
2019-03-27T10:06:38.262Z,11.6
2019-03-27T10:07:45.272Z,11
2019-03-27T10:08:52.486Z,10.7
2019-03-27T10:09:59.691Z,10.6
2019-03-27T10:11:06.749Z,10.6
2019-03-27T10:12:13.955Z,11
2019-03-27T10:13:21.159Z,11.4
2019-03-27T10:14:28.362Z,11.8
2019-03-27T10:15:35.293Z,12.1
2019-03-27T10:16:42.497Z,11.9
2019-03-27T10:17:49.148Z,11.5
2019-03-27T10:18:56.078Z,11.3
2019-03-27T10:20:04.815Z,11.4
2019-03-27T10:21:12.014Z,11.4
2019-03-27T10:22:19.231Z,11.6
2019-03-27T10:23:26.447Z,11.6
2019-03-27T10:24:33.734Z,11.3
2019-03-27T10:25:40.932Z,11.5
2019-03-27T10:26:47.867Z,11.5
2019-03-27T10:27:55.066Z,11.6
2019-03-27T10:29:02.273Z,11.9
2019-03-27T10:30:09.517Z,12.3
2019-03-27T10:31:16.718Z,12.6
2019-03-27T10:32:23.921Z,12.9
2019-03-27T10:33:31.135Z,12.9
2019-03-27T10:34:38.340Z,13
2019-03-27T10:35:45.609Z,12.7
2019-03-27T10:36:52.817Z,12.3
2019-03-27T10:38:00.026Z,12.1
2019-03-27T10:39:06.961Z,12
2019-03-27T10:40:14.165Z,12.2
2019-03-27T10:41:21.373Z,12.4
2019-03-27T10:42:28.633Z,12.4
2019-03-27T10:43:35.840Z,12.7
2019-03-27T10:44:43.059Z,12.9
2019-03-27T10:45:50.254Z,13
2019-03-27T10:46:57.195Z,13
2019-03-27T10:48:04.402Z,13.1
2019-03-27T10:49:11.610Z,13.1
2019-03-27T10:50:18.850Z,13.2
2019-03-27T10:51:26.053Z,13.3
2019-03-27T10:52:33.262Z,13.1
2019-03-27T10:53:40.470Z,12.8
2019-03-27T10:54:47.673Z,13
2019-03-27T10:55:54.611Z,13
2019-03-27T10:57:01.549Z,12.9
2019-03-27T10:58:08.778Z,13
2019-03-27T10:59:15.982Z,13
2019-03-27T11:00:23.189Z,13.2
2019-03-27T11:01:30.399Z,13.2
2019-03-27T11:02:37.608Z,12.7
2019-03-27T11:03:44.541Z,12.5
2019-03-27T11:04:51.471Z,12.8
2019-03-27T11:05:58.675Z,12.9
2019-03-27T11:07:05.880Z,12.7
2019-03-27T11:08:12.810Z,12.7
2019-03-27T11:09:19.748Z,12.4
2019-03-27T11:10:26.686Z,12.4
2019-03-27T11:11:33.902Z,12.5
2019-03-27T11:12:41.100Z,12.9
2019-03-27T11:13:48.035Z,13.2
2019-03-27T11:14:55.234Z,13.4
2019-03-27T11:16:02.455Z,13.4
2019-03-27T11:17:09.673Z,13.5
2019-03-27T11:18:16.881Z,13.1
2019-03-27T11:19:24.094Z,12.8
2019-03-27T11:20:32.187Z,12.6
2019-03-27T11:21:39.402Z,12.6
2019-03-27T11:22:46.345Z,12.9
2019-03-27T11:23:53.551Z,13.3
2019-03-27T11:25:00.356Z,13.5
2019-03-27T11:26:07.691Z,13.5
2019-03-27T11:27:14.926Z,13.2
2019-03-27T11:28:21.569Z,13.2
2019-03-27T11:29:28.494Z,12.5
2019-03-27T11:30:35.424Z,12.4
2019-03-27T11:31:42.628Z,12.8
2019-03-27T11:32:49.833Z,12.9
2019-03-27T11:33:57.036Z,13.1
2019-03-27T11:35:03.972Z,13.2
2019-03-27T11:36:10.917Z,13.1
2019-03-27T11:37:18.126Z,13.3
2019-03-27T11:38:25.335Z,13.5
2019-03-27T11:39:32.540Z,13.6
2019-03-27T11:40:39.817Z,13.5
2019-03-27T11:41:46.755Z,13.5
2019-03-27T11:42:53.963Z,13.6
2019-03-27T11:44:00.898Z,13.7
2019-03-27T11:45:08.169Z,13.6
2019-03-27T11:46:15.102Z,13.5
2019-03-27T11:47:22.310Z,13.2
2019-03-27T11:48:29.515Z,12.6
2019-03-27T11:49:36.720Z,12.8
2019-03-27T11:50:45.880Z,13
2019-03-27T11:51:53.086Z,13.2
2019-03-27T11:53:00.292Z,13.3
2019-03-27T11:54:07.496Z,13.1
2019-03-27T11:55:14.700Z,13
2019-03-27T11:56:21.911Z,13.1
2019-03-27T11:57:29.110Z,13.2
2019-03-27T11:58:36.322Z,13.2
2019-03-27T11:59:54.475Z,13.2
2019-03-27T12:01:01.724Z,12.9
2019-03-27T12:02:08.949Z,12.7
2019-03-27T12:03:16.154Z,12.9
2019-03-27T12:04:23.091Z,13.1
2019-03-27T12:05:30.023Z,13.2
2019-03-27T12:06:36.957Z,13.4
2019-03-27T12:07:44.162Z,13.4
2019-03-27T12:08:51.627Z,13.6
2019-03-27T12:09:58.830Z,13.7
2019-03-27T12:11:05.760Z,13.6
2019-03-27T12:12:12.964Z,13.2
2019-03-27T12:13:20.173Z,12.6
2019-03-27T12:14:27.383Z,12
2019-03-27T12:15:34.317Z,12
2019-03-27T12:16:41.529Z,12.2
2019-03-27T12:17:48.731Z,12.4
2019-03-27T12:18:55.943Z,12.1
2019-03-27T12:20:02.884Z,12
2019-03-27T12:21:10.105Z,11.8
2019-03-27T12:22:17.316Z,11.8
2019-03-27T12:23:24.740Z,12.1
2019-03-27T12:24:31.954Z,12.5
2019-03-27T12:25:39.168Z,12.8
2019-03-27T12:26:46.405Z,13
2019-03-27T12:27:53.622Z,13.3
2019-03-27T12:29:00.562Z,13
2019-03-27T12:30:07.273Z,12.6
2019-03-27T12:31:14.220Z,12.4
2019-03-27T12:32:21.438Z,12.1
2019-03-27T12:33:31.811Z,12.2
2019-03-27T12:34:38.743Z,12.4
2019-03-27T12:35:45.967Z,12.6
2019-03-27T12:36:53.172Z,12.7
2019-03-27T12:38:00.103Z,12.8
2019-03-27T12:39:10.647Z,13.1
2019-03-27T12:40:17.649Z,13.4
2019-03-27T12:41:24.868Z,13.6
2019-03-27T12:42:32.078Z,13.3
2019-03-27T12:43:39.290Z,13.2
2019-03-27T12:44:46.237Z,13
2019-03-27T12:45:53.183Z,12.3
2019-03-27T12:47:00.417Z,11.8
2019-03-27T12:48:07.354Z,11.7
2019-03-27T12:49:14.308Z,11.6
2019-03-27T12:50:21.517Z,11.9
2019-03-27T12:51:28.721Z,12.3
2019-03-27T12:52:35.934Z,12.2
2019-03-27T12:53:42.866Z,12.4
2019-03-27T12:54:49.792Z,12.4
2019-03-27T12:55:57.003Z,12.5
2019-03-27T12:57:04.208Z,12.6
2019-03-27T12:58:12.426Z,13.1
2019-03-27T12:59:19.630Z,13.1
2019-03-27T13:00:26.562Z,12.9
2019-03-27T13:01:33.777Z,13
2019-03-27T13:02:40.980Z,12.8
2019-03-27T13:03:48.187Z,12.7
2019-03-27T13:04:55.398Z,12.1
2019-03-27T13:06:02.395Z,12.1
2019-03-27T13:07:09.597Z,11.9
2019-03-27T13:08:16.542Z,11.9
2019-03-27T13:09:23.752Z,12
2019-03-27T13:10:30.996Z,12.1
2019-03-27T13:11:38.211Z,11.8
2019-03-27T13:12:45.421Z,11.8
2019-03-27T13:13:52.629Z,12
2019-03-27T13:14:59.835Z,12.4
2019-03-27T13:16:07.087Z,12.9
2019-03-27T13:17:14.301Z,13.2
2019-03-27T13:18:21.247Z,13.3
2019-03-27T13:19:27.925Z,13.5
2019-03-27T13:20:35.140Z,13.4
2019-03-27T13:21:42.389Z,13.1
2019-03-27T13:22:49.054Z,13.2
2019-03-27T13:23:55.996Z,13.6
2019-03-27T13:25:03.205Z,14
2019-03-27T13:26:10.413Z,13.4
2019-03-27T13:27:17.346Z,12.7
2019-03-27T13:28:24.563Z,12.5
2019-03-27T13:29:31.771Z,12.6
2019-03-27T13:30:38.985Z,13.1
2019-03-27T13:31:46.199Z,13.5
2019-03-27T13:32:53.411Z,13.9
2019-03-27T13:34:00.615Z,13.5
2019-03-27T13:35:07.827Z,13.3
2019-03-27T13:36:15.029Z,13.1
2019-03-27T13:37:22.249Z,13.2
2019-03-27T13:38:29.455Z,12.8
2019-03-27T13:39:36.387Z,12.6
2019-03-27T13:40:43.595Z,12.7
2019-03-27T13:41:50.805Z,13
2019-03-27T13:42:58.015Z,13.4
2019-03-27T13:44:04.990Z,13.6
2019-03-27T13:45:12.207Z,13.8
2019-03-27T13:46:19.414Z,14.1
2019-03-27T13:47:26.816Z,14.2
2019-03-27T13:48:33.513Z,14
2019-03-27T13:49:40.720Z,13.5
2019-03-27T13:50:47.945Z,13.5
2019-03-27T13:51:55.149Z,13.4
2019-03-27T13:53:02.359Z,13.4
2019-03-27T13:54:09.566Z,13.3
2019-03-27T13:55:16.773Z,13.3
2019-03-27T13:56:23.980Z,13.2
2019-03-27T13:57:30.929Z,13.2
2019-03-27T13:58:38.139Z,12.9
2019-03-27T13:59:45.348Z,12.7
2019-03-27T14:00:52.579Z,12.7
2019-03-27T14:01:59.788Z,13
2019-03-27T14:03:07.064Z,13
2019-03-27T14:04:14.272Z,13.6
2019-03-27T14:05:21.480Z,13.8
2019-03-27T14:06:28.691Z,14
2019-03-27T14:07:35.906Z,13.9
2019-03-27T14:08:43.120Z,13.8
2019-03-27T14:09:50.050Z,13.6
2019-03-27T14:10:57.260Z,13.4
2019-03-27T14:12:04.467Z,13.3
2019-03-27T14:13:11.675Z,13.4
2019-03-27T14:14:18.887Z,13
2019-03-27T14:15:26.103Z,12.5
2019-03-27T14:16:33.310Z,12.1
2019-03-27T14:17:40.516Z,11.9
2019-03-27T14:18:49.542Z,12.2
2019-03-27T14:19:56.812Z,12.3
2019-03-27T14:21:04.012Z,12.3
2019-03-27T14:22:10.936Z,12.4
2019-03-27T14:23:18.167Z,12.3
2019-03-27T14:24:25.370Z,12.2
2019-03-27T14:25:32.582Z,12.2
2019-03-27T14:26:45.736Z,12.3
2019-03-27T14:27:52.721Z,12.5
2019-03-27T14:28:59.988Z,12.3
2019-03-27T14:30:07.196Z,12.3
2019-03-27T14:31:14.413Z,12.2
2019-03-27T14:32:21.617Z,12
2019-03-27T14:33:28.825Z,12.1
2019-03-27T14:34:36.031Z,12.1
2019-03-27T14:35:43.242Z,12.2
2019-03-27T14:36:50.454Z,12.4
2019-03-27T14:37:57.667Z,12.4
2019-03-27T14:39:04.878Z,12.5
2019-03-27T14:40:12.081Z,12.5
2019-03-27T14:41:18.737Z,12.3
2019-03-27T14:42:25.712Z,12.4
2019-03-27T14:43:32.918Z,12.7
2019-03-27T14:44:39.861Z,13
2019-03-27T14:45:46.802Z,13.1
2019-03-27T14:46:53.734Z,13.1
2019-03-27T14:48:00.947Z,13.1
2019-03-27T14:49:07.612Z,13.1
2019-03-27T14:50:14.815Z,12.6
2019-03-27T14:51:22.023Z,12.3
2019-03-27T14:52:29.263Z,12.3
2019-03-27T14:53:36.477Z,12.2
2019-03-27T14:54:43.683Z,12.1
2019-03-27T14:55:50.622Z,12.1
2019-03-27T14:56:57.868Z,11.8
2019-03-27T14:58:04.790Z,11.7
2019-03-27T14:59:11.990Z,11.9
2019-03-27T15:00:19.197Z,12
2019-03-27T15:01:26.403Z,12.2
2019-03-27T15:02:33.341Z,12.5
2019-03-27T15:03:40.547Z,13.1
2019-03-27T15:04:47.777Z,13.6
2019-03-27T15:05:54.988Z,13.7
2019-03-27T15:07:02.201Z,13.9
2019-03-27T15:08:09.132Z,14.1
2019-03-27T15:09:16.340Z,14
2019-03-27T15:10:23.561Z,13.3
2019-03-27T15:11:30.770Z,13
2019-03-27T15:12:37.976Z,13
2019-03-27T15:13:45.190Z,13
2019-03-27T15:14:52.398Z,12.9
2019-03-27T15:15:59.600Z,13
2019-03-27T15:17:06.811Z,13
2019-03-27T15:18:13.748Z,13.2
2019-03-27T15:19:20.684Z,13.8